Baltiysk, Russia
Current Conditions -  °F | °C
As of 2:30 PM on Thursday 30 Oct 2014 (Local Time) from UMKK Reporting Station
Broken Clouds Broken Clouds  
Wind Chill: 50°   Ceiling: 20000
Heat Index: 50°   Visibility: 6mi
Dew Point: 41°   Wind: 7mph
Humidity: 71%   Direction: 350°N
Pressure: 30.18"   Gusts: NA
Location:  54.65°N, 19.91°E
Report Text: UMKK 301230Z 35003MPS 9999 SCT016 BKN200 10/05 Q1022 R24/19//60NOSIG RMK QFE765/1020
Loading
Personal Weather Stations






























Interactive Weather Map
Tropical Storm Tracking
New forecast layout! Learn more

10-Day Weather Forecast

Advertisements
Track Severe Weather on mobile